createdAt,value
2022-08-29T00:01:49.902Z,66.68
2022-08-29T00:04:17.181Z,67.59
2022-08-29T00:06:44.153Z,67.53
2022-08-29T00:09:11.593Z,67.57
2022-08-29T00:11:43.425Z,67.63
2022-08-29T00:14:21.104Z,67.68
2022-08-29T00:16:50.813Z,68.09
2022-08-29T00:19:17.817Z,67.38
2022-08-29T00:21:44.800Z,67.41
2022-08-29T00:24:12.033Z,67.70
2022-08-29T00:26:39.031Z,68.04
2022-08-29T00:29:05.996Z,68.41
2022-08-29T00:31:33.170Z,67.55
2022-08-29T00:34:00.264Z,67.98
2022-08-29T00:36:27.390Z,67.94
2022-08-29T00:38:58.332Z,68.39
2022-08-29T00:41:25.508Z,67.29
2022-08-29T00:43:52.480Z,67.56
2022-08-29T00:46:43.900Z,67.65
2022-08-29T00:49:36.802Z,68.44
2022-08-29T00:52:08.825Z,67.45
2022-08-29T00:54:37.354Z,67.80
2022-08-29T00:57:05.237Z,68.17
2022-08-29T00:59:36.931Z,67.63
2022-08-29T01:02:05.183Z,67.70
2022-08-29T01:04:32.720Z,68.99
2022-08-29T01:07:00.418Z,68.63
2022-08-29T01:09:28.514Z,68.27
2022-08-29T01:12:14.876Z,68.55
2022-08-29T01:14:50.904Z,67.87
2022-08-29T01:17:28.202Z,67.87
2022-08-29T01:20:00.777Z,68.36
2022-08-29T01:22:54.253Z,69.02
2022-08-29T01:25:24.720Z,68.95
2022-08-29T01:27:59.630Z,68.32
2022-08-29T01:30:26.609Z,68.92
2022-08-29T01:32:53.568Z,68.79
2022-08-29T01:35:20.833Z,69.05
2022-08-29T01:37:48.088Z,68.93
2022-08-29T01:40:15.332Z,68.77
2022-08-29T01:42:42.629Z,68.87
2022-08-29T01:45:10.636Z,68.50
2022-08-29T01:47:38.951Z,68.54
2022-08-29T01:50:10.608Z,68.79
2022-08-29T01:52:37.613Z,68.76
2022-08-29T01:55:05.149Z,69.02
2022-08-29T01:57:32.115Z,68.83
2022-08-29T01:59:59.564Z,69.43
2022-08-29T02:02:29.363Z,68.79
2022-08-29T02:04:58.921Z,69.90
2022-08-29T02:07:26.594Z,68.61
2022-08-29T02:09:53.773Z,69.52
2022-08-29T02:12:21.736Z,69.84
2022-08-29T02:14:50.757Z,69.10
2022-08-29T02:17:18.184Z,69.01
2022-08-29T02:19:46.138Z,69.32
2022-08-29T02:22:13.929Z,69.08
2022-08-29T02:24:42.548Z,69.14
2022-08-29T02:27:10.665Z,69.81
2022-08-29T02:29:38.501Z,69.62
2022-08-29T02:32:14.685Z,69.71
2022-08-29T02:34:44.513Z,69.38
2022-08-29T02:37:13.029Z,69.20
2022-08-29T02:39:40.263Z,69.57
2022-08-29T02:42:07.425Z,69.79
2022-08-29T02:44:34.528Z,69.58
2022-08-29T02:47:01.676Z,69.36
2022-08-29T02:49:28.620Z,69.58
2022-08-29T02:51:57.470Z,70.55
2022-08-29T02:54:24.485Z,69.88
2022-08-29T02:56:51.549Z,69.63
2022-08-29T02:59:18.753Z,70.61
2022-08-29T03:01:45.993Z,70.49
2022-08-29T03:04:12.987Z,70.02
2022-08-29T03:06:39.912Z,70.39
2022-08-29T03:09:07.145Z,69.96
2022-08-29T03:11:34.328Z,70.74
2022-08-29T03:14:01.530Z,70.03
2022-08-29T03:16:29.533Z,70.36
2022-08-29T03:18:56.971Z,70.15
2022-08-29T03:21:26.658Z,71.38
2022-08-29T03:23:56.425Z,70.37
2022-08-29T03:26:24.325Z,70.53
2022-08-29T03:28:51.341Z,71.04
2022-08-29T03:31:18.981Z,70.54
2022-08-29T03:33:46.136Z,71.48
2022-08-29T03:36:13.932Z,70.84
2022-08-29T03:38:46.669Z,71.65
2022-08-29T03:41:24.086Z,71.26
2022-08-29T03:43:51.881Z,70.64
2022-08-29T03:46:18.887Z,71.80
2022-08-29T03:48:45.872Z,70.90
2022-08-29T03:51:12.920Z,71.77
2022-08-29T03:53:40.875Z,71.91
2022-08-29T03:56:08.357Z,71.08
2022-08-29T03:58:38.415Z,70.93
2022-08-29T04:01:06.341Z,70.82
2022-08-29T04:03:33.457Z,71.35
2022-08-29T04:06:00.954Z,72.20
2022-08-29T04:08:28.000Z,72.00
2022-08-29T04:10:55.252Z,71.74
2022-08-29T04:13:22.492Z,72.13
2022-08-29T04:15:50.250Z,72.11
2022-08-29T04:18:21.319Z,71.65
2022-08-29T04:20:49.632Z,71.24
2022-08-29T04:23:16.883Z,71.77
2022-08-29T04:25:44.533Z,71.99
2022-08-29T04:28:13.829Z,72.35
2022-08-29T04:30:51.391Z,72.50
2022-08-29T04:33:22.740Z,72.12
2022-08-29T04:35:50.704Z,72.57
2022-08-29T04:38:38.129Z,71.90
2022-08-29T04:41:32.944Z,72.33
2022-08-29T04:44:21.533Z,71.68
2022-08-29T04:47:08.449Z,72.61
2022-08-29T04:49:55.643Z,72.64
2022-08-29T04:52:43.416Z,71.58
2022-08-29T04:55:30.880Z,71.47
2022-08-29T04:58:18.304Z,71.51
2022-08-29T05:01:05.866Z,71.91
2022-08-29T05:03:53.748Z,71.36
2022-08-29T05:06:43.325Z,72.23
2022-08-29T05:09:30.212Z,70.97
2022-08-29T05:12:17.198Z,72.21
2022-08-29T05:15:04.158Z,70.99
2022-08-29T05:17:51.487Z,72.01
2022-08-29T05:20:38.366Z,70.92
2022-08-29T05:23:25.331Z,70.75
2022-08-29T05:26:21.805Z,70.62
2022-08-29T05:29:09.054Z,70.26
2022-08-29T05:31:57.452Z,70.89
2022-08-29T05:34:44.497Z,70.18
2022-08-29T05:37:35.189Z,70.87
2022-08-29T05:40:22.578Z,71.09
2022-08-29T05:43:09.520Z,69.87
2022-08-29T05:45:57.475Z,70.77
2022-08-29T05:48:44.429Z,70.57
2022-08-29T05:51:39.941Z,70.39
2022-08-29T05:54:30.366Z,70.32
2022-08-29T05:57:19.296Z,70.04
2022-08-29T06:00:08.240Z,70.36
2022-08-29T06:02:59.530Z,69.70
2022-08-29T06:05:46.554Z,70.32
2022-08-29T06:08:33.797Z,69.53
2022-08-29T06:11:20.760Z,69.00
2022-08-29T06:14:07.937Z,69.09
2022-08-29T06:16:54.767Z,69.85
2022-08-29T06:19:42.278Z,68.77
2022-08-29T06:22:30.459Z,68.42
2022-08-29T06:25:38.041Z,68.83
2022-08-29T06:28:24.929Z,69.20
2022-08-29T06:31:12.013Z,69.42
2022-08-29T06:34:00.052Z,68.21
2022-08-29T06:36:49.150Z,69.15
2022-08-29T06:39:36.106Z,68.95
2022-08-29T06:42:23.231Z,68.46
2022-08-29T06:45:10.286Z,68.01
2022-08-29T06:47:57.425Z,68.67
2022-08-29T06:50:45.717Z,67.73
2022-08-29T06:53:37.002Z,67.46
2022-08-29T06:56:26.060Z,67.17
2022-08-29T06:59:13.751Z,67.64
2022-08-29T07:02:03.041Z,66.83
2022-08-29T07:04:50.201Z,67.00
2022-08-29T07:07:37.142Z,67.45
2022-08-29T07:10:24.604Z,67.19
2022-08-29T07:13:12.976Z,66.54
2022-08-29T07:16:00.251Z,66.80
2022-08-29T07:18:47.460Z,66.84
2022-08-29T07:21:37.682Z,66.60
2022-08-29T07:24:25.183Z,66.66
2022-08-29T07:27:12.164Z,66.58
2022-08-29T07:30:00.255Z,66.33
2022-08-29T07:32:47.462Z,65.90
2022-08-29T07:35:36.181Z,65.84
2022-08-29T07:38:23.203Z,65.93
2022-08-29T07:41:18.549Z,65.81
2022-08-29T07:44:05.561Z,65.97
2022-08-29T07:46:52.809Z,65.51
2022-08-29T07:49:41.871Z,65.30
2022-08-29T07:52:29.408Z,65.32
2022-08-29T07:55:17.078Z,65.19
2022-08-29T07:58:03.998Z,64.60
2022-08-29T08:00:51.583Z,64.72
2022-08-29T08:03:38.477Z,64.11
2022-08-29T08:06:27.167Z,63.92
2022-08-29T08:09:15.192Z,63.62
2022-08-29T08:12:07.647Z,63.30
2022-08-29T08:14:55.511Z,63.08
2022-08-29T08:17:44.169Z,63.03
2022-08-29T08:20:31.897Z,62.76
2022-08-29T08:23:19.047Z,62.92
2022-08-29T08:26:06.152Z,62.80
2022-08-29T08:28:53.459Z,62.23
2022-08-29T08:31:42.288Z,62.49
2022-08-29T08:34:29.341Z,62.32
2022-08-29T08:37:24.224Z,61.62
2022-08-29T08:40:18.987Z,62.09
2022-08-29T08:43:06.046Z,61.62
2022-08-29T08:46:01.475Z,61.41
2022-08-29T08:48:56.309Z,60.94
2022-08-29T08:51:52.136Z,60.58
2022-08-29T08:54:44.697Z,60.48
2022-08-29T08:57:33.292Z,60.03
2022-08-29T09:00:20.318Z,59.82
2022-08-29T09:03:35.791Z,60.46
2022-08-29T09:06:25.565Z,59.83
2022-08-29T09:09:30.667Z,59.40
2022-08-29T09:12:59.125Z,58.98
2022-08-29T09:15:53.474Z,59.01
2022-08-29T09:18:54.854Z,58.60
2022-08-29T09:21:42.680Z,57.98
2022-08-29T09:24:37.228Z,57.66
2022-08-29T09:27:24.496Z,58.25
2022-08-29T09:30:35.189Z,58.14
2022-08-29T09:33:28.005Z,57.02
2022-08-29T09:36:14.973Z,57.52
2022-08-29T09:39:02.053Z,57.12
2022-08-29T09:41:48.957Z,56.10
2022-08-29T09:44:42.630Z,56.04
2022-08-29T09:47:41.348Z,55.58
2022-08-29T09:50:37.685Z,54.90
2022-08-29T09:53:25.615Z,54.49
2022-08-29T09:56:13.364Z,52.50
2022-08-29T09:59:00.850Z,52.63
2022-08-29T10:01:49.304Z,51.99
2022-08-29T10:04:57.584Z,51.84
2022-08-29T10:07:29.093Z,51.66
2022-08-29T10:10:01.718Z,51.16
2022-08-29T10:12:38.436Z,50.73
2022-08-29T10:15:28.000Z,50.15
2022-08-29T10:18:20.746Z,49.39
2022-08-29T10:21:02.714Z,49.17
2022-08-29T10:23:37.660Z,48.32
2022-08-29T10:26:23.492Z,48.60
2022-08-29T10:29:32.081Z,48.88
2022-08-29T10:32:20.766Z,48.49
2022-08-29T10:35:11.937Z,47.86
2022-08-29T10:37:50.541Z,48.16
2022-08-29T10:40:47.851Z,48.08
2022-08-29T10:43:50.204Z,47.02
2022-08-29T10:46:39.892Z,47.70
2022-08-29T10:49:43.079Z,47.10
2022-08-29T10:52:26.719Z,46.62
2022-08-29T10:55:15.176Z,46.77
2022-08-29T10:58:05.578Z,45.44
2022-08-29T11:00:42.276Z,45.85
2022-08-29T11:03:38.833Z,46.47
2022-08-29T11:06:32.221Z,46.74
2022-08-29T11:09:08.698Z,46.28
2022-08-29T11:11:40.321Z,45.41
2022-08-29T11:14:39.448Z,45.44
2022-08-29T11:17:29.985Z,45.19
2022-08-29T11:20:39.133Z,45.13
2022-08-29T11:23:28.304Z,44.88
2022-08-29T11:26:20.665Z,44.16
2022-08-29T11:29:44.940Z,44.49
2022-08-29T11:32:41.035Z,44.58
2022-08-29T11:35:51.752Z,44.98
2022-08-29T11:38:57.604Z,44.52
2022-08-29T11:41:58.447Z,43.75
2022-08-29T11:44:51.706Z,43.95
2022-08-29T11:48:00.261Z,43.52
2022-08-29T11:50:56.645Z,42.87
2022-08-29T11:53:54.618Z,42.54
2022-08-29T11:56:50.591Z,42.37
2022-08-29T12:00:15.781Z,42.41
2022-08-29T12:03:15.027Z,41.83
2022-08-29T12:06:17.176Z,41.92
2022-08-29T12:09:22.777Z,41.55
2022-08-29T12:12:18.887Z,41.74
2022-08-29T12:15:11.308Z,41.44
2022-08-29T12:18:01.040Z,40.65
2022-08-29T12:20:31.833Z,41.19
2022-08-29T12:23:22.004Z,40.83
2022-08-29T12:26:16.302Z,40.79
2022-08-29T12:28:57.877Z,40.71
2022-08-29T12:32:18.012Z,40.42
2022-08-29T12:35:00.711Z,39.99
2022-08-29T12:37:30.882Z,39.84
2022-08-29T12:40:25.216Z,40.62
2022-08-29T12:43:26.376Z,40.32
2022-08-29T12:45:54.167Z,40.83
2022-08-29T12:48:40.305Z,40.69
2022-08-29T12:51:07.389Z,40.32
2022-08-29T12:53:36.883Z,40.24
2022-08-29T12:56:20.177Z,40.08
2022-08-29T12:58:57.072Z,40.06
2022-08-29T13:01:33.536Z,40.08
2022-08-29T13:04:13.565Z,40.46
2022-08-29T13:06:51.788Z,39.74
2022-08-29T13:09:28.980Z,39.58
2022-08-29T13:12:14.401Z,40.33
2022-08-29T13:14:58.473Z,40.30
2022-08-29T13:17:34.523Z,40.71
2022-08-29T13:20:46.071Z,41.30
2022-08-29T13:23:21.249Z,41.27
2022-08-29T13:25:56.674Z,40.74
2022-08-29T13:28:30.682Z,40.87
2022-08-29T13:31:04.984Z,40.47
2022-08-29T13:33:35.506Z,40.56
2022-08-29T13:36:41.238Z,40.74
2022-08-29T13:39:18.211Z,41.62
2022-08-29T13:42:27.233Z,41.68
2022-08-29T13:45:14.865Z,41.85
2022-08-29T13:48:15.840Z,41.67
2022-08-29T13:51:06.171Z,41.58
2022-08-29T13:53:34.438Z,41.72
2022-08-29T13:56:02.569Z,42.18
2022-08-29T13:58:32.170Z,42.28
2022-08-29T14:04:38.267Z,43.49
2022-08-29T14:07:28.592Z,44.79
2022-08-29T14:10:11.545Z,45.69
2022-08-29T14:12:58.578Z,46.42
2022-08-29T14:15:45.573Z,46.43
2022-08-29T14:18:33.086Z,47.18
2022-08-29T14:21:20.330Z,47.65
2022-08-29T14:24:07.426Z,47.71
2022-08-29T14:27:01.051Z,48.26
2022-08-29T14:29:49.212Z,48.57
2022-08-29T14:32:36.269Z,48.54
2022-08-29T14:35:04.965Z,48.81
2022-08-29T14:37:32.912Z,48.72
2022-08-29T14:40:00.091Z,48.86
2022-08-29T14:42:27.073Z,49.15
2022-08-29T14:44:54.087Z,48.83
2022-08-29T14:47:41.016Z,49.21
2022-08-29T14:50:28.363Z,49.03
2022-08-29T14:53:15.384Z,49.07
2022-08-29T14:56:02.446Z,49.17
2022-08-29T14:58:49.956Z,49.41
2022-08-29T15:01:36.916Z,49.50
2022-08-29T15:04:36.282Z,49.55
2022-08-29T15:07:27.410Z,49.56
2022-08-29T15:10:14.549Z,49.79
2022-08-29T15:13:01.676Z,50.24
2022-08-29T15:15:49.117Z,50.22
2022-08-29T15:19:14.820Z,50.92
2022-08-29T15:21:43.391Z,50.53
2022-08-29T15:24:30.265Z,50.60
2022-08-29T15:27:18.106Z,51.49
2022-08-29T15:30:05.103Z,51.31
2022-08-29T15:32:52.517Z,51.35
2022-08-29T15:35:39.816Z,51.28
2022-08-29T15:38:28.076Z,51.46
2022-08-29T15:41:14.992Z,52.00
2022-08-29T15:44:02.072Z,51.63
2022-08-29T15:46:50.936Z,52.33
2022-08-29T15:49:42.529Z,51.73
2022-08-29T15:52:31.154Z,51.68
2022-08-29T15:54:58.671Z,52.16
2022-08-29T15:57:25.724Z,51.98
2022-08-29T15:59:59.708Z,52.20
2022-08-29T16:02:27.791Z,52.81
2022-08-29T16:04:57.207Z,53.46
2022-08-29T16:07:28.737Z,53.16
2022-08-29T16:09:59.799Z,53.25
2022-08-29T16:12:28.457Z,53.29
2022-08-29T16:14:59.995Z,53.59
2022-08-29T16:17:32.176Z,53.95
2022-08-29T16:20:21.105Z,53.38
2022-08-29T16:23:08.201Z,54.27
2022-08-29T16:25:55.238Z,54.29
2022-08-29T16:28:22.261Z,54.55
2022-08-29T16:30:51.456Z,53.70
2022-08-29T16:33:19.606Z,53.81
2022-08-29T16:35:46.733Z,54.21
2022-08-29T16:38:13.824Z,53.55
2022-08-29T16:40:41.016Z,53.92
2022-08-29T16:43:08.328Z,53.68
2022-08-29T16:45:35.577Z,54.14
2022-08-29T16:48:03.080Z,54.08
2022-08-29T16:50:31.969Z,54.36
2022-08-29T16:52:59.454Z,53.57
2022-08-29T16:55:26.504Z,53.19
2022-08-29T16:58:12.258Z,53.96
2022-08-29T17:00:40.359Z,53.64
2022-08-29T17:03:07.942Z,54.17
2022-08-29T17:05:35.149Z,53.75
2022-08-29T17:08:02.114Z,53.78
2022-08-29T17:10:29.136Z,54.74
2022-08-29T17:12:56.128Z,54.49
2022-08-29T17:15:23.123Z,54.53
2022-08-29T17:17:50.100Z,53.74
2022-08-29T17:20:17.176Z,53.33
2022-08-29T17:22:44.077Z,53.12
2022-08-29T17:25:11.174Z,53.45
2022-08-29T17:27:42.862Z,52.42
2022-08-29T17:30:17.657Z,52.76
2022-08-29T17:32:47.704Z,52.48
2022-08-29T17:35:15.488Z,52.74
2022-08-29T17:37:42.909Z,52.97
2022-08-29T17:40:13.235Z,53.40
2022-08-29T17:42:44.046Z,54.19
2022-08-29T17:45:11.162Z,54.31
2022-08-29T17:47:38.186Z,54.65
2022-08-29T17:50:05.819Z,54.45
2022-08-29T17:52:32.744Z,54.40
2022-08-29T17:55:03.767Z,54.47
2022-08-29T17:57:34.244Z,54.54
2022-08-29T18:00:01.425Z,54.98
2022-08-29T18:02:37.793Z,54.70
2022-08-29T18:05:05.467Z,55.25
2022-08-29T18:07:33.543Z,55.31
2022-08-29T18:10:01.257Z,56.19
2022-08-29T18:12:28.612Z,56.19
2022-08-29T18:14:55.491Z,56.47
2022-08-29T18:17:22.464Z,56.67
2022-08-29T18:19:49.628Z,57.07
2022-08-29T18:22:16.582Z,56.73
2022-08-29T18:24:43.519Z,56.90
2022-08-29T18:27:10.717Z,57.02
2022-08-29T18:29:37.681Z,57.04
2022-08-29T18:32:04.721Z,57.69
2022-08-29T18:34:31.838Z,58.33
2022-08-29T18:36:58.873Z,58.35
2022-08-29T18:39:25.957Z,58.82
2022-08-29T18:41:53.153Z,58.79
2022-08-29T18:44:20.104Z,58.99
2022-08-29T18:46:51.545Z,59.73
2022-08-29T18:49:19.847Z,59.67
2022-08-29T18:51:47.005Z,59.81
2022-08-29T18:54:18.763Z,60.07
2022-08-29T18:56:46.528Z,60.51
2022-08-29T18:59:13.453Z,60.53
2022-08-29T19:01:42.263Z,60.37
2022-08-29T19:04:09.378Z,60.74
2022-08-29T19:06:36.284Z,60.97
2022-08-29T19:09:23.824Z,61.30
2022-08-29T19:12:10.747Z,61.40
2022-08-29T19:14:59.181Z,61.96
2022-08-29T19:17:46.078Z,61.84
2022-08-29T19:20:34.425Z,61.84
2022-08-29T19:23:21.501Z,62.56
2022-08-29T19:26:08.838Z,62.14
2022-08-29T19:28:58.676Z,62.41
2022-08-29T19:31:46.731Z,63.18
2022-08-29T19:34:33.672Z,63.14
2022-08-29T19:37:20.766Z,63.25
2022-08-29T19:40:07.796Z,63.46
2022-08-29T19:42:54.965Z,63.58
2022-08-29T19:45:42.651Z,63.84
2022-08-29T19:48:30.321Z,64.40
2022-08-29T19:51:17.213Z,64.24
2022-08-29T19:54:04.944Z,64.55
2022-08-29T19:56:52.491Z,64.67
2022-08-29T19:59:39.573Z,64.81
2022-08-29T20:02:29.272Z,64.98
2022-08-29T20:05:16.386Z,65.37
2022-08-29T20:08:04.003Z,65.08
2022-08-29T20:10:52.094Z,65.27
2022-08-29T20:13:39.378Z,65.39
2022-08-29T20:16:32.595Z,65.56
2022-08-29T20:19:20.229Z,65.87
2022-08-29T20:22:08.321Z,65.97
2022-08-29T20:24:55.268Z,65.69
2022-08-29T20:27:43.118Z,65.94
2022-08-29T20:30:33.136Z,65.89
2022-08-29T20:33:20.675Z,66.11
2022-08-29T20:36:05.995Z,65.81
2022-08-29T20:38:53.021Z,65.53
2022-08-29T20:41:40.123Z,65.54
2022-08-29T20:44:32.964Z,65.69
2022-08-29T20:47:20.874Z,65.82
2022-08-29T20:50:09.285Z,65.91
2022-08-29T20:52:37.533Z,65.61
2022-08-29T20:55:24.780Z,65.80
2022-08-29T20:58:11.693Z,66.24
2022-08-29T21:00:38.617Z,65.82
2022-08-29T21:03:24.396Z,65.89
2022-08-29T21:05:51.420Z,66.37
2022-08-29T21:08:23.220Z,66.17
2022-08-29T21:10:53.387Z,65.87
2022-08-29T21:13:20.642Z,66.34
2022-08-29T21:15:48.294Z,66.23
2022-08-29T21:18:20.121Z,66.56
2022-08-29T21:21:09.613Z,66.61
2022-08-29T21:23:56.665Z,66.11
2022-08-29T21:26:43.568Z,66.47
2022-08-29T21:29:30.432Z,66.32
2022-08-29T21:32:17.583Z,66.43
2022-08-29T21:35:04.593Z,66.41
2022-08-29T21:37:51.789Z,66.85
2022-08-29T21:40:44.138Z,66.63
2022-08-29T21:43:38.045Z,66.69
2022-08-29T21:46:35.016Z,66.82
2022-08-29T21:49:25.113Z,66.69
2022-08-29T21:52:12.812Z,66.77
2022-08-29T21:54:59.644Z,67.39
2022-08-29T21:57:45.184Z,66.90
2022-08-29T22:00:33.931Z,67.01
2022-08-29T22:03:24.642Z,66.90
2022-08-29T22:06:11.552Z,67.14
2022-08-29T22:08:59.573Z,67.33
2022-08-29T22:11:50.251Z,67.25
2022-08-29T22:14:37.232Z,67.04
2022-08-29T22:17:24.247Z,67.08
2022-08-29T22:20:11.283Z,67.19
2022-08-29T22:22:58.325Z,67.55
2022-08-29T22:25:45.655Z,67.36
2022-08-29T22:28:33.072Z,67.68
2022-08-29T22:31:20.229Z,67.73
2022-08-29T22:34:08.584Z,67.90
2022-08-29T22:36:55.688Z,67.80
2022-08-29T22:39:42.734Z,67.87
2022-08-29T22:42:29.839Z,68.00
2022-08-29T22:45:16.860Z,67.90
2022-08-29T22:48:04.860Z,68.04
2022-08-29T22:50:58.201Z,67.88
2022-08-29T22:53:45.728Z,68.12
2022-08-29T22:56:32.772Z,68.08
2022-08-29T22:59:20.099Z,68.00
2022-08-29T23:02:07.152Z,68.22
2022-08-29T23:04:54.333Z,68.48
2022-08-29T23:07:41.435Z,68.27
2022-08-29T23:10:30.058Z,68.25
2022-08-29T23:13:17.253Z,68.41
2022-08-29T23:16:04.561Z,68.42
2022-08-29T23:18:51.587Z,68.63
2022-08-29T23:21:39.675Z,68.34
2022-08-29T23:24:28.534Z,68.27
2022-08-29T23:27:15.534Z,68.11
2022-08-29T23:30:02.538Z,67.83
2022-08-29T23:32:49.612Z,68.34
2022-08-29T23:35:39.322Z,68.46
2022-08-29T23:38:26.438Z,68.33
2022-08-29T23:41:17.493Z,68.34
2022-08-29T23:44:05.119Z,68.18
2022-08-29T23:46:52.505Z,68.06
2022-08-29T23:49:39.597Z,67.97
2022-08-29T23:52:26.697Z,67.92
2022-08-29T23:55:13.745Z,67.64
2022-08-29T23:58:01.078Z,68.19
